sensor_id;sensor_type;location;lat;lon;timestamp;temperature;humidity
8105;DHT22;4095;48.942;9.104;2022-09-09T00:00:24;18.30;99.90
8105;DHT22;4095;48.942;9.104;2022-09-09T00:03:18;18.30;99.90
8105;DHT22;4095;48.942;9.104;2022-09-09T00:06:07;18.30;99.90
8105;DHT22;4095;48.942;9.104;2022-09-09T00:17:04;18.40;99.90
8105;DHT22;4095;48.942;9.104;2022-09-09T00:19:53;18.40;99.90
8105;DHT22;4095;48.942;9.104;2022-09-09T00:22:23;18.50;99.90
8105;DHT22;4095;48.942;9.104;2022-09-09T00:24:53;18.50;99.90
8105;DHT22;4095;48.942;9.104;2022-09-09T00:27:32;18.50;99.90
8105;DHT22;4095;48.942;9.104;2022-09-09T00:30:26;18.50;99.90
8105;DHT22;4095;48.942;9.104;2022-09-09T00:33:01;18.60;99.90
8105;DHT22;4095;48.942;9.104;2022-09-09T00:35:32;18.50;99.80
8105;DHT22;4095;48.942;9.104;2022-09-09T00:38:20;18.50;99.90
8105;DHT22;4095;48.942;9.104;2022-09-09T00:40:52;18.50;99.80
8105;DHT22;4095;48.942;9.104;2022-09-09T00:43:29;18.50;99.80
8105;DHT22;4095;48.942;9.104;2022-09-09T00:48:49;18.40;99.70
8105;DHT22;4095;48.942;9.104;2022-09-09T00:54:08;18.50;99.80
8105;DHT22;4095;48.942;9.104;2022-09-09T00:59:32;18.50;99.90
8105;DHT22;4095;48.942;9.104;2022-09-09T01:02:07;18.60;99.90
8105;DHT22;4095;48.942;9.104;2022-09-09T01:04:37;18.60;99.90
8105;DHT22;4095;48.942;9.104;2022-09-09T01:07:10;18.60;99.90
8105;DHT22;4095;48.942;9.104;2022-09-09T01:09:56;18.60;99.90
8105;DHT22;4095;48.942;9.104;2022-09-09T01:12:46;18.60;99.90
8105;DHT22;4095;48.942;9.104;2022-09-09T01:15:27;18.50;99.90
8105;DHT22;4095;48.942;9.104;2022-09-09T01:18:10;18.60;99.90
8105;DHT22;4095;48.942;9.104;2022-09-09T01:20:53;18.60;99.90
8105;DHT22;4095;48.942;9.104;2022-09-09T01:28:28;18.70;99.90
8105;DHT22;4095;48.942;9.104;2022-09-09T01:30:55;18.70;99.90
8105;DHT22;4095;48.942;9.104;2022-09-09T01:33:21;18.70;99.90
8105;DHT22;4095;48.942;9.104;2022-09-09T01:35:51;18.70;99.90
8105;DHT22;4095;48.942;9.104;2022-09-09T01:38:20;18.70;99.90
8105;DHT22;4095;48.942;9.104;2022-09-09T01:40:46;18.70;99.90
8105;DHT22;4095;48.942;9.104;2022-09-09T01:43:13;18.80;99.90
8105;DHT22;4095;48.942;9.104;2022-09-09T01:45:40;18.80;99.90
8105;DHT22;4095;48.942;9.104;2022-09-09T01:48:07;18.80;99.90
8105;DHT22;4095;48.942;9.104;2022-09-09T01:50:32;18.80;99.90
8105;DHT22;4095;48.942;9.104;2022-09-09T01:52:59;18.70;99.90
8105;DHT22;4095;48.942;9.104;2022-09-09T01:55:40;18.80;99.90
8105;DHT22;4095;48.942;9.104;2022-09-09T02:00:45;18.80;99.90
8105;DHT22;4095;48.942;9.104;2022-09-09T02:03:34;18.80;99.90
8105;DHT22;4095;48.942;9.104;2022-09-09T02:06:05;18.80;99.90
8105;DHT22;4095;48.942;9.104;2022-09-09T02:11:16;18.80;99.90
8105;DHT22;4095;48.942;9.104;2022-09-09T02:13:44;18.80;99.90
8105;DHT22;4095;48.942;9.104;2022-09-09T02:16:34;18.60;99.90
8105;DHT22;4095;48.942;9.104;2022-09-09T02:19:08;18.60;99.90
8105;DHT22;4095;48.942;9.104;2022-09-09T02:21:41;18.70;99.90
8105;DHT22;4095;48.942;9.104;2022-09-09T02:24:08;18.60;99.90
8105;DHT22;4095;48.942;9.104;2022-09-09T02:26:39;18.60;99.90
8105;DHT22;4095;48.942;9.104;2022-09-09T02:29:14;18.60;99.90
8105;DHT22;4095;48.942;9.104;2022-09-09T02:31:41;18.60;99.90
8105;DHT22;4095;48.942;9.104;2022-09-09T02:34:10;18.60;99.90
8105;DHT22;4095;48.942;9.104;2022-09-09T02:36:40;18.60;99.90
8105;DHT22;4095;48.942;9.104;2022-09-09T02:39:08;18.50;99.90
8105;DHT22;4095;48.942;9.104;2022-09-09T02:41:38;18.50;99.90
8105;DHT22;4095;48.942;9.104;2022-09-09T02:44:12;18.40;99.90
8105;DHT22;4095;48.942;9.104;2022-09-09T02:52:27;18.30;99.90
8105;DHT22;4095;48.942;9.104;2022-09-09T02:55:02;18.30;99.90
8105;DHT22;4095;48.942;9.104;2022-09-09T02:57:31;18.30;99.90
8105;DHT22;4095;48.942;9.104;2022-09-09T02:59:59;18.30;99.90
8105;DHT22;4095;48.942;9.104;2022-09-09T03:02:25;18.30;99.90
8105;DHT22;4095;48.942;9.104;2022-09-09T03:04:51;18.30;99.90
8105;DHT22;4095;48.942;9.104;2022-09-09T03:07:20;18.20;99.90
8105;DHT22;4095;48.942;9.104;2022-09-09T03:09:46;18.30;99.90
8105;DHT22;4095;48.942;9.104;2022-09-09T03:12:12;18.20;99.90
8105;DHT22;4095;48.942;9.104;2022-09-09T03:14:38;18.10;99.90
8105;DHT22;4095;48.942;9.104;2022-09-09T03:17:05;18.00;99.90
8105;DHT22;4095;48.942;9.104;2022-09-09T03:19:31;18.00;99.90
8105;DHT22;4095;48.942;9.104;2022-09-09T03:21:57;18.00;99.90
8105;DHT22;4095;48.942;9.104;2022-09-09T03:24:24;18.00;99.90
8105;DHT22;4095;48.942;9.104;2022-09-09T03:26:49;18.00;99.90
8105;DHT22;4095;48.942;9.104;2022-09-09T03:29:16;18.00;99.90
8105;DHT22;4095;48.942;9.104;2022-09-09T03:31:43;18.00;99.90
8105;DHT22;4095;48.942;9.104;2022-09-09T03:34:08;18.00;99.90
8105;DHT22;4095;48.942;9.104;2022-09-09T03:36:34;18.00;99.90
8105;DHT22;4095;48.942;9.104;2022-09-09T03:39:00;18.00;99.90
8105;DHT22;4095;48.942;9.104;2022-09-09T03:41:26;18.00;99.90
8105;DHT22;4095;48.942;9.104;2022-09-09T03:43:53;17.90;99.90
8105;DHT22;4095;48.942;9.104;2022-09-09T03:46:24;18.00;99.90
8105;DHT22;4095;48.942;9.104;2022-09-09T03:48:50;18.00;99.90
8105;DHT22;4095;48.942;9.104;2022-09-09T03:51:16;18.00;99.90
8105;DHT22;4095;48.942;9.104;2022-09-09T03:53:42;17.90;99.90
8105;DHT22;4095;48.942;9.104;2022-09-09T03:56:08;17.90;99.90
8105;DHT22;4095;48.942;9.104;2022-09-09T03:58:36;17.90;99.90
8105;DHT22;4095;48.942;9.104;2022-09-09T04:01:10;17.80;99.90
8105;DHT22;4095;48.942;9.104;2022-09-09T04:03:38;17.90;99.90
8105;DHT22;4095;48.942;9.104;2022-09-09T04:06:05;17.90;99.90
8105;DHT22;4095;48.942;9.104;2022-09-09T04:08:32;17.90;99.90
8105;DHT22;4095;48.942;9.104;2022-09-09T04:10:58;17.90;99.90
8105;DHT22;4095;48.942;9.104;2022-09-09T04:13:26;17.90;99.90
8105;DHT22;4095;48.942;9.104;2022-09-09T04:15:57;17.90;99.90
8105;DHT22;4095;48.942;9.104;2022-09-09T04:18:23;17.90;99.90
8105;DHT22;4095;48.942;9.104;2022-09-09T04:20:50;18.00;99.90
8105;DHT22;4095;48.942;9.104;2022-09-09T04:23:17;17.90;99.90
8105;DHT22;4095;48.942;9.104;2022-09-09T04:25:50;17.90;99.90
8105;DHT22;4095;48.942;9.104;2022-09-09T04:28:17;17.90;99.90
8105;DHT22;4095;48.942;9.104;2022-09-09T04:30:44;17.90;99.90
8105;DHT22;4095;48.942;9.104;2022-09-09T04:33:10;17.90;99.90
8105;DHT22;4095;48.942;9.104;2022-09-09T04:35:36;17.90;99.90
8105;DHT22;4095;48.942;9.104;2022-09-09T04:38:03;17.90;99.90
8105;DHT22;4095;48.942;9.104;2022-09-09T04:40:30;18.00;99.90
8105;DHT22;4095;48.942;9.104;2022-09-09T04:42:58;18.00;99.90
8105;DHT22;4095;48.942;9.104;2022-09-09T04:45:24;18.00;99.90
8105;DHT22;4095;48.942;9.104;2022-09-09T04:47:49;18.10;99.90
8105;DHT22;4095;48.942;9.104;2022-09-09T04:50:15;18.10;99.90
8105;DHT22;4095;48.942;9.104;2022-09-09T04:52:41;18.10;99.90
8105;DHT22;4095;48.942;9.104;2022-09-09T04:55:07;18.10;99.90
8105;DHT22;4095;48.942;9.104;2022-09-09T04:57:34;18.10;99.90
8105;DHT22;4095;48.942;9.104;2022-09-09T04:59:59;18.10;99.90
8105;DHT22;4095;48.942;9.104;2022-09-09T05:02:26;18.20;99.90
8105;DHT22;4095;48.942;9.104;2022-09-09T05:04:52;18.10;99.90
8105;DHT22;4095;48.942;9.104;2022-09-09T05:07:17;18.20;99.90
8105;DHT22;4095;48.942;9.104;2022-09-09T05:09:44;18.20;99.90
8105;DHT22;4095;48.942;9.104;2022-09-09T05:12:10;18.30;99.90
8105;DHT22;4095;48.942;9.104;2022-09-09T05:14:36;18.30;99.90
8105;DHT22;4095;48.942;9.104;2022-09-09T05:17:03;18.30;99.90
8105;DHT22;4095;48.942;9.104;2022-09-09T05:19:28;18.30;99.90
8105;DHT22;4095;48.942;9.104;2022-09-09T05:21:56;18.30;99.90
8105;DHT22;4095;48.942;9.104;2022-09-09T05:24:22;18.30;99.90
8105;DHT22;4095;48.942;9.104;2022-09-09T05:26:48;18.40;99.90
8105;DHT22;4095;48.942;9.104;2022-09-09T05:29:14;18.30;99.90
8105;DHT22;4095;48.942;9.104;2022-09-09T05:31:39;18.40;99.90
8105;DHT22;4095;48.942;9.104;2022-09-09T05:34:06;18.40;99.90
8105;DHT22;4095;48.942;9.104;2022-09-09T05:36:32;18.40;99.90
8105;DHT22;4095;48.942;9.104;2022-09-09T05:38:57;18.40;99.90
8105;DHT22;4095;48.942;9.104;2022-09-09T05:41:23;18.50;99.90
8105;DHT22;4095;48.942;9.104;2022-09-09T05:43:49;18.40;99.90
8105;DHT22;4095;48.942;9.104;2022-09-09T05:48:42;18.50;99.90
8105;DHT22;4095;48.942;9.104;2022-09-09T05:51:10;18.60;99.90
8105;DHT22;4095;48.942;9.104;2022-09-09T05:53:41;18.70;99.90
8105;DHT22;4095;48.942;9.104;2022-09-09T05:56:21;18.70;99.90
8105;DHT22;4095;48.942;9.104;2022-09-09T05:58:48;18.70;99.90
8105;DHT22;4095;48.942;9.104;2022-09-09T06:01:22;18.70;99.90
8105;DHT22;4095;48.942;9.104;2022-09-09T06:03:49;18.80;99.90
8105;DHT22;4095;48.942;9.104;2022-09-09T06:06:18;18.80;99.80
8105;DHT22;4095;48.942;9.104;2022-09-09T06:08:46;18.80;99.10
8105;DHT22;4095;48.942;9.104;2022-09-09T06:11:16;18.90;98.80
8105;DHT22;4095;48.942;9.104;2022-09-09T06:13:42;18.90;98.80
8105;DHT22;4095;48.942;9.104;2022-09-09T06:16:12;19.00;98.90
8105;DHT22;4095;48.942;9.104;2022-09-09T06:18:39;19.00;99.20
8105;DHT22;4095;48.942;9.104;2022-09-09T06:21:06;19.10;99.40
8105;DHT22;4095;48.942;9.104;2022-09-09T06:23:35;19.20;99.30
8105;DHT22;4095;48.942;9.104;2022-09-09T06:26:24;19.20;98.90
8105;DHT22;4095;48.942;9.104;2022-09-09T06:28:50;19.30;99.00
8105;DHT22;4095;48.942;9.104;2022-09-09T06:31:19;19.30;98.70
8105;DHT22;4095;48.942;9.104;2022-09-09T06:33:53;19.30;99.00
8105;DHT22;4095;48.942;9.104;2022-09-09T06:36:29;19.40;98.80
8105;DHT22;4095;48.942;9.104;2022-09-09T06:38:55;19.50;98.70
8105;DHT22;4095;48.942;9.104;2022-09-09T06:41:23;19.50;98.50
8105;DHT22;4095;48.942;9.104;2022-09-09T06:43:49;19.50;98.30
8105;DHT22;4095;48.942;9.104;2022-09-09T06:46:17;19.60;98.40
8105;DHT22;4095;48.942;9.104;2022-09-09T06:48:44;19.60;98.60
8105;DHT22;4095;48.942;9.104;2022-09-09T06:53:38;19.80;98.30
8105;DHT22;4095;48.942;9.104;2022-09-09T06:58:36;19.80;98.50
8105;DHT22;4095;48.942;9.104;2022-09-09T07:01:06;19.90;98.40
8105;DHT22;4095;48.942;9.104;2022-09-09T07:03:35;19.90;98.60
8105;DHT22;4095;48.942;9.104;2022-09-09T07:06:01;19.90;97.70
8105;DHT22;4095;48.942;9.104;2022-09-09T07:08:27;20.00;98.00
8105;DHT22;4095;48.942;9.104;2022-09-09T07:10:53;20.00;97.70
8105;DHT22;4095;48.942;9.104;2022-09-09T07:13:28;20.00;97.50
8105;DHT22;4095;48.942;9.104;2022-09-09T07:15:54;20.10;97.40
8105;DHT22;4095;48.942;9.104;2022-09-09T07:18:19;20.20;97.40
8105;DHT22;4095;48.942;9.104;2022-09-09T07:20:55;20.30;97.20
8105;DHT22;4095;48.942;9.104;2022-09-09T07:23:23;20.40;97.10
8105;DHT22;4095;48.942;9.104;2022-09-09T07:25:49;20.50;97.00
8105;DHT22;4095;48.942;9.104;2022-09-09T07:28:16;20.50;96.70
8105;DHT22;4095;48.942;9.104;2022-09-09T07:30:41;20.40;96.50
8105;DHT22;4095;48.942;9.104;2022-09-09T07:33:08;20.40;96.40
8105;DHT22;4095;48.942;9.104;2022-09-09T07:35:35;20.40;96.40
8105;DHT22;4095;48.942;9.104;2022-09-09T07:38:04;20.50;96.60
8105;DHT22;4095;48.942;9.104;2022-09-09T07:40:33;20.60;96.20
8105;DHT22;4095;48.942;9.104;2022-09-09T07:42:59;20.70;96.10
8105;DHT22;4095;48.942;9.104;2022-09-09T07:45:25;20.80;95.70
8105;DHT22;4095;48.942;9.104;2022-09-09T07:47:53;21.00;96.00
8105;DHT22;4095;48.942;9.104;2022-09-09T07:50:20;21.00;95.90
8105;DHT22;4095;48.942;9.104;2022-09-09T07:52:46;21.10;96.40
8105;DHT22;4095;48.942;9.104;2022-09-09T07:55:11;21.30;95.80
8105;DHT22;4095;48.942;9.104;2022-09-09T07:57:37;21.40;95.70
8105;DHT22;4095;48.942;9.104;2022-09-09T08:00:04;21.50;95.30
8105;DHT22;4095;48.942;9.104;2022-09-09T08:02:30;21.60;95.10
8105;DHT22;4095;48.942;9.104;2022-09-09T08:04:55;21.70;94.90
8105;DHT22;4095;48.942;9.104;2022-09-09T08:07:22;21.80;95.20
8105;DHT22;4095;48.942;9.104;2022-09-09T08:09:48;21.90;94.80
8105;DHT22;4095;48.942;9.104;2022-09-09T08:12:14;22.10;94.40
8105;DHT22;4095;48.942;9.104;2022-09-09T08:14:40;22.30;94.30
8105;DHT22;4095;48.942;9.104;2022-09-09T08:17:06;22.40;94.10
8105;DHT22;4095;48.942;9.104;2022-09-09T08:19:32;22.50;93.30
8105;DHT22;4095;48.942;9.104;2022-09-09T08:22:01;22.40;92.50
8105;DHT22;4095;48.942;9.104;2022-09-09T08:24:27;22.50;93.30
8105;DHT22;4095;48.942;9.104;2022-09-09T08:26:53;22.50;92.70
8105;DHT22;4095;48.942;9.104;2022-09-09T08:29:19;22.60;92.90
8105;DHT22;4095;48.942;9.104;2022-09-09T08:31:53;22.60;92.30
8105;DHT22;4095;48.942;9.104;2022-09-09T08:34:20;22.70;92.80
8105;DHT22;4095;48.942;9.104;2022-09-09T08:36:47;22.80;93.00
8105;DHT22;4095;48.942;9.104;2022-09-09T08:39:15;22.90;92.60
8105;DHT22;4095;48.942;9.104;2022-09-09T08:50:20;23.00;92.60
8105;DHT22;4095;48.942;9.104;2022-09-09T08:55:54;23.20;91.80
8105;DHT22;4095;48.942;9.104;2022-09-09T08:58:29;23.30;91.90
8105;DHT22;4095;48.942;9.104;2022-09-09T09:11:58;23.30;91.80
8105;DHT22;4095;48.942;9.104;2022-09-09T09:14:33;23.40;91.40
8105;DHT22;4095;48.942;9.104;2022-09-09T09:17:23;23.60;91.30
8105;DHT22;4095;48.942;9.104;2022-09-09T09:19:50;23.60;90.40
8105;DHT22;4095;48.942;9.104;2022-09-09T09:25:23;23.90;89.10
8105;DHT22;4095;48.942;9.104;2022-09-09T09:30:28;24.10;87.60
8105;DHT22;4095;48.942;9.104;2022-09-09T09:32:58;24.20;87.90
8105;DHT22;4095;48.942;9.104;2022-09-09T09:35:25;24.20;87.10
8105;DHT22;4095;48.942;9.104;2022-09-09T09:37:51;24.30;88.60
8105;DHT22;4095;48.942;9.104;2022-09-09T09:40:19;24.50;87.00
8105;DHT22;4095;48.942;9.104;2022-09-09T09:42:59;24.60;87.20
8105;DHT22;4095;48.942;9.104;2022-09-09T09:45:34;24.60;86.20
8105;DHT22;4095;48.942;9.104;2022-09-09T09:48:09;24.80;86.30
8105;DHT22;4095;48.942;9.104;2022-09-09T09:50:50;24.80;84.50
8105;DHT22;4095;48.942;9.104;2022-09-09T09:56:02;25.30;85.60
8105;DHT22;4095;48.942;9.104;2022-09-09T09:58:35;25.30;83.30
8105;DHT22;4095;48.942;9.104;2022-09-09T10:01:02;25.40;83.30
8105;DHT22;4095;48.942;9.104;2022-09-09T10:03:32;25.60;82.00
8105;DHT22;4095;48.942;9.104;2022-09-09T10:06:03;25.80;83.20
8105;DHT22;4095;48.942;9.104;2022-09-09T10:08:29;26.00;82.30
8105;DHT22;4095;48.942;9.104;2022-09-09T10:19:16;24.90;85.60
8105;DHT22;4095;48.942;9.104;2022-09-09T10:33:12;24.50;88.50
8105;DHT22;4095;48.942;9.104;2022-09-09T10:38:17;24.40;86.20
8105;DHT22;4095;48.942;9.104;2022-09-09T10:46:21;23.60;87.80
8105;DHT22;4095;48.942;9.104;2022-09-09T11:00:14;23.20;88.50
8105;DHT22;4095;48.942;9.104;2022-09-09T11:02:41;23.20;88.50
8105;DHT22;4095;48.942;9.104;2022-09-09T11:05:38;23.10;88.60
8105;DHT22;4095;48.942;9.104;2022-09-09T11:08:11;23.10;88.50
8105;DHT22;4095;48.942;9.104;2022-09-09T11:11:03;23.00;87.90
8105;DHT22;4095;48.942;9.104;2022-09-09T11:16:08;22.90;89.10
8105;DHT22;4095;48.942;9.104;2022-09-09T11:18:39;22.80;89.30
8105;DHT22;4095;48.942;9.104;2022-09-09T11:21:15;22.80;87.70
8105;DHT22;4095;48.942;9.104;2022-09-09T11:23:49;22.60;88.10
8105;DHT22;4095;48.942;9.104;2022-09-09T11:26:29;22.50;90.10
8105;DHT22;4095;48.942;9.104;2022-09-09T11:32:12;22.20;90.50
8105;DHT22;4095;48.942;9.104;2022-09-09T11:37:47;21.80;91.80
8105;DHT22;4095;48.942;9.104;2022-09-09T11:40:28;21.70;91.80
8105;DHT22;4095;48.942;9.104;2022-09-09T11:43:15;21.50;92.10
8105;DHT22;4095;48.942;9.104;2022-09-09T11:45:51;21.40;93.10
8105;DHT22;4095;48.942;9.104;2022-09-09T12:01:35;21.20;93.60
8105;DHT22;4095;48.942;9.104;2022-09-09T12:09:55;21.90;93.20
8105;DHT22;4095;48.942;9.104;2022-09-09T12:12:34;22.10;93.00
8105;DHT22;4095;48.942;9.104;2022-09-09T12:17:53;22.70;91.70
8105;DHT22;4095;48.942;9.104;2022-09-09T12:20:23;23.70;90.70
8105;DHT22;4095;48.942;9.104;2022-09-09T12:23:25;24.50;90.20
8105;DHT22;4095;48.942;9.104;2022-09-09T12:28:54;25.20;85.30
8105;DHT22;4095;48.942;9.104;2022-09-09T12:31:54;25.30;82.90
8105;DHT22;4095;48.942;9.104;2022-09-09T12:34:41;25.40;82.40
8105;DHT22;4095;48.942;9.104;2022-09-09T12:37:43;25.80;80.80
8105;DHT22;4095;48.942;9.104;2022-09-09T12:40:25;26.30;79.40
8105;DHT22;4095;48.942;9.104;2022-09-09T12:42:51;26.50;79.30
8105;DHT22;4095;48.942;9.104;2022-09-09T12:45:22;26.50;80.10
8105;DHT22;4095;48.942;9.104;2022-09-09T12:48:05;26.50;80.80
8105;DHT22;4095;48.942;9.104;2022-09-09T12:50:37;26.40;78.50
8105;DHT22;4095;48.942;9.104;2022-09-09T12:53:25;26.20;80.00
8105;DHT22;4095;48.942;9.104;2022-09-09T12:56:05;26.00;80.30
8105;DHT22;4095;48.942;9.104;2022-09-09T12:58:36;25.80;80.80
8105;DHT22;4095;48.942;9.104;2022-09-09T13:01:04;25.60;80.10
8105;DHT22;4095;48.942;9.104;2022-09-09T13:03:32;25.40;81.20
8105;DHT22;4095;48.942;9.104;2022-09-09T13:06:10;25.30;81.30
8105;DHT22;4095;48.942;9.104;2022-09-09T13:08:37;25.20;82.00
8105;DHT22;4095;48.942;9.104;2022-09-09T13:11:07;25.10;82.60
8105;DHT22;4095;48.942;9.104;2022-09-09T13:13:38;25.00;83.40
8105;DHT22;4095;48.942;9.104;2022-09-09T13:16:06;25.00;83.90
8105;DHT22;4095;48.942;9.104;2022-09-09T13:18:42;24.90;83.30
8105;DHT22;4095;48.942;9.104;2022-09-09T13:21:07;24.70;83.40
8105;DHT22;4095;48.942;9.104;2022-09-09T13:23:35;24.60;84.00
8105;DHT22;4095;48.942;9.104;2022-09-09T13:26:04;24.60;83.70
8105;DHT22;4095;48.942;9.104;2022-09-09T13:28:32;24.60;84.60
8105;DHT22;4095;48.942;9.104;2022-09-09T13:31:19;24.70;83.30
8105;DHT22;4095;48.942;9.104;2022-09-09T13:33:45;24.70;83.90
8105;DHT22;4095;48.942;9.104;2022-09-09T13:36:12;24.70;83.70
8105;DHT22;4095;48.942;9.104;2022-09-09T13:38:53;24.70;82.50
8105;DHT22;4095;48.942;9.104;2022-09-09T13:41:43;24.70;81.30
8105;DHT22;4095;48.942;9.104;2022-09-09T13:44:25;24.70;81.20
8105;DHT22;4095;48.942;9.104;2022-09-09T13:49:28;24.70;81.80
8105;DHT22;4095;48.942;9.104;2022-09-09T13:52:10;24.60;81.00
8105;DHT22;4095;48.942;9.104;2022-09-09T13:54:37;24.70;80.80
8105;DHT22;4095;48.942;9.104;2022-09-09T13:57:03;24.70;78.60
8105;DHT22;4095;48.942;9.104;2022-09-09T13:59:30;24.70;79.80
8105;DHT22;4095;48.942;9.104;2022-09-09T14:01:57;24.70;79.20
8105;DHT22;4095;48.942;9.104;2022-09-09T14:04:22;24.70;79.70
8105;DHT22;4095;48.942;9.104;2022-09-09T14:06:49;24.80;79.30
8105;DHT22;4095;48.942;9.104;2022-09-09T14:09:17;24.70;79.30
8105;DHT22;4095;48.942;9.104;2022-09-09T14:11:44;24.70;80.10
8105;DHT22;4095;48.942;9.104;2022-09-09T14:14:10;24.60;79.70
8105;DHT22;4095;48.942;9.104;2022-09-09T14:16:36;24.60;79.70
8105;DHT22;4095;48.942;9.104;2022-09-09T14:19:03;24.60;80.20
8105;DHT22;4095;48.942;9.104;2022-09-09T14:21:29;24.50;79.00
8105;DHT22;4095;48.942;9.104;2022-09-09T14:23:55;24.50;79.40
8105;DHT22;4095;48.942;9.104;2022-09-09T14:26:23;24.50;79.10
8105;DHT22;4095;48.942;9.104;2022-09-09T14:28:49;24.50;79.30
8105;DHT22;4095;48.942;9.104;2022-09-09T14:31:15;24.50;79.50
8105;DHT22;4095;48.942;9.104;2022-09-09T14:33:43;24.50;79.40
8105;DHT22;4095;48.942;9.104;2022-09-09T14:36:09;24.50;79.60
8105;DHT22;4095;48.942;9.104;2022-09-09T14:38:37;24.50;79.80
8105;DHT22;4095;48.942;9.104;2022-09-09T14:41:06;24.50;80.10
8105;DHT22;4095;48.942;9.104;2022-09-09T14:43:31;24.50;80.10
8105;DHT22;4095;48.942;9.104;2022-09-09T14:46:07;24.40;79.90
8105;DHT22;4095;48.942;9.104;2022-09-09T14:48:34;24.50;80.80
8105;DHT22;4095;48.942;9.104;2022-09-09T14:51:08;24.50;80.20
8105;DHT22;4095;48.942;9.104;2022-09-09T14:53:34;24.50;79.60
8105;DHT22;4095;48.942;9.104;2022-09-09T14:56:04;24.40;79.80
8105;DHT22;4095;48.942;9.104;2022-09-09T14:58:30;24.30;80.00
8105;DHT22;4095;48.942;9.104;2022-09-09T15:01:02;24.40;80.20
8105;DHT22;4095;48.942;9.104;2022-09-09T15:03:28;24.30;79.40
8105;DHT22;4095;48.942;9.104;2022-09-09T15:05:54;24.20;79.20
8105;DHT22;4095;48.942;9.104;2022-09-09T15:08:19;24.10;77.80
8105;DHT22;4095;48.942;9.104;2022-09-09T15:10:45;24.00;77.80
8105;DHT22;4095;48.942;9.104;2022-09-09T15:13:14;23.90;77.30
8105;DHT22;4095;48.942;9.104;2022-09-09T15:15:42;23.90;77.30
8105;DHT22;4095;48.942;9.104;2022-09-09T15:18:08;23.80;77.20
8105;DHT22;4095;48.942;9.104;2022-09-09T15:20:34;23.70;77.10
8105;DHT22;4095;48.942;9.104;2022-09-09T15:23:00;23.80;78.30
8105;DHT22;4095;48.942;9.104;2022-09-09T15:25:26;23.90;78.20
8105;DHT22;4095;48.942;9.104;2022-09-09T15:27:52;23.90;78.00
8105;DHT22;4095;48.942;9.104;2022-09-09T15:30:17;23.80;78.60
8105;DHT22;4095;48.942;9.104;2022-09-09T15:32:43;23.70;78.50
8105;DHT22;4095;48.942;9.104;2022-09-09T15:35:08;23.80;78.50
8105;DHT22;4095;48.942;9.104;2022-09-09T15:37:34;23.90;79.40
8105;DHT22;4095;48.942;9.104;2022-09-09T15:40:00;23.90;79.30
8105;DHT22;4095;48.942;9.104;2022-09-09T15:42:25;23.80;78.90
8105;DHT22;4095;48.942;9.104;2022-09-09T15:44:51;23.80;78.50
8105;DHT22;4095;48.942;9.104;2022-09-09T15:47:16;23.70;78.60
8105;DHT22;4095;48.942;9.104;2022-09-09T15:49:43;23.60;79.10
8105;DHT22;4095;48.942;9.104;2022-09-09T15:52:10;23.60;80.10
8105;DHT22;4095;48.942;9.104;2022-09-09T15:54:36;23.50;80.70
8105;DHT22;4095;48.942;9.104;2022-09-09T15:57:05;23.40;80.00
8105;DHT22;4095;48.942;9.104;2022-09-09T15:59:32;23.40;80.70
8105;DHT22;4095;48.942;9.104;2022-09-09T16:01:59;23.40;81.30
8105;DHT22;4095;48.942;9.104;2022-09-09T16:04:26;23.30;81.20
8105;DHT22;4095;48.942;9.104;2022-09-09T16:06:54;23.30;81.60
8105;DHT22;4095;48.942;9.104;2022-09-09T16:09:20;23.30;81.50
8105;DHT22;4095;48.942;9.104;2022-09-09T16:11:46;23.30;83.10
8105;DHT22;4095;48.942;9.104;2022-09-09T16:14:13;23.20;86.50
8105;DHT22;4095;48.942;9.104;2022-09-09T16:16:41;23.10;87.90
8105;DHT22;4095;48.942;9.104;2022-09-09T16:19:09;22.90;89.00
8105;DHT22;4095;48.942;9.104;2022-09-09T16:21:40;22.60;89.00
8105;DHT22;4095;48.942;9.104;2022-09-09T16:24:09;22.30;88.90
8105;DHT22;4095;48.942;9.104;2022-09-09T16:26:36;21.90;90.20
8105;DHT22;4095;48.942;9.104;2022-09-09T16:29:02;21.60;92.10
8105;DHT22;4095;48.942;9.104;2022-09-09T16:31:29;21.10;93.60
8105;DHT22;4095;48.942;9.104;2022-09-09T16:33:55;20.70;95.10
8105;DHT22;4095;48.942;9.104;2022-09-09T16:36:23;20.30;95.70
8105;DHT22;4095;48.942;9.104;2022-09-09T16:38:54;20.00;96.10
8105;DHT22;4095;48.942;9.104;2022-09-09T16:41:20;19.70;96.50
8105;DHT22;4095;48.942;9.104;2022-09-09T16:43:46;19.50;97.00
8105;DHT22;4095;48.942;9.104;2022-09-09T16:46:19;19.30;97.50
8105;DHT22;4095;48.942;9.104;2022-09-09T16:48:46;19.20;98.10
8105;DHT22;4095;48.942;9.104;2022-09-09T16:53:40;18.90;99.00
8105;DHT22;4095;48.942;9.104;2022-09-09T16:56:12;18.80;99.00
8105;DHT22;4095;48.942;9.104;2022-09-09T16:58:38;18.70;99.10
8105;DHT22;4095;48.942;9.104;2022-09-09T17:01:04;18.80;99.70
8105;DHT22;4095;48.942;9.104;2022-09-09T17:03:31;18.80;99.70
8105;DHT22;4095;48.942;9.104;2022-09-09T17:05:58;18.90;99.60
8105;DHT22;4095;48.942;9.104;2022-09-09T17:08:28;18.90;99.60
8105;DHT22;4095;48.942;9.104;2022-09-09T17:10:54;18.90;99.80
8105;DHT22;4095;48.942;9.104;2022-09-09T17:13:20;18.80;99.90
8105;DHT22;4095;48.942;9.104;2022-09-09T17:15:46;18.90;99.90
8105;DHT22;4095;48.942;9.104;2022-09-09T17:18:12;18.90;99.90
8105;DHT22;4095;48.942;9.104;2022-09-09T17:20:41;18.90;99.90
8105;DHT22;4095;48.942;9.104;2022-09-09T17:23:08;18.90;99.90
8105;DHT22;4095;48.942;9.104;2022-09-09T17:25:35;19.00;99.90
8105;DHT22;4095;48.942;9.104;2022-09-09T17:28:02;19.00;99.90
8105;DHT22;4095;48.942;9.104;2022-09-09T17:30:30;19.10;99.90
8105;DHT22;4095;48.942;9.104;2022-09-09T17:32:59;19.10;99.90
8105;DHT22;4095;48.942;9.104;2022-09-09T17:35:24;19.10;99.90
8105;DHT22;4095;48.942;9.104;2022-09-09T17:37:52;19.10;99.90
8105;DHT22;4095;48.942;9.104;2022-09-09T17:40:17;19.10;99.90
8105;DHT22;4095;48.942;9.104;2022-09-09T17:42:43;19.10;99.90
8105;DHT22;4095;48.942;9.104;2022-09-09T17:45:09;19.00;99.90
8105;DHT22;4095;48.942;9.104;2022-09-09T17:47:35;18.80;99.90
8105;DHT22;4095;48.942;9.104;2022-09-09T17:50:00;18.70;99.90
8105;DHT22;4095;48.942;9.104;2022-09-09T17:52:26;18.60;99.90
8105;DHT22;4095;48.942;9.104;2022-09-09T17:54:52;18.60;99.90
8105;DHT22;4095;48.942;9.104;2022-09-09T17:57:22;18.50;99.90
8105;DHT22;4095;48.942;9.104;2022-09-09T17:59:47;18.50;99.90
8105;DHT22;4095;48.942;9.104;2022-09-09T18:02:13;18.60;99.90
8105;DHT22;4095;48.942;9.104;2022-09-09T18:04:38;18.70;99.90
8105;DHT22;4095;48.942;9.104;2022-09-09T18:07:04;18.70;99.90
8105;DHT22;4095;48.942;9.104;2022-09-09T18:09:30;18.70;99.90
8105;DHT22;4095;48.942;9.104;2022-09-09T18:11:57;18.80;99.90
8105;DHT22;4095;48.942;9.104;2022-09-09T18:14:27;18.80;99.90
8105;DHT22;4095;48.942;9.104;2022-09-09T18:16:56;18.90;99.90
8105;DHT22;4095;48.942;9.104;2022-09-09T18:19:27;18.90;99.90
8105;DHT22;4095;48.942;9.104;2022-09-09T18:21:53;18.90;99.90
8105;DHT22;4095;48.942;9.104;2022-09-09T18:24:20;18.80;99.90
8105;DHT22;4095;48.942;9.104;2022-09-09T18:26:46;18.80;99.90
8105;DHT22;4095;48.942;9.104;2022-09-09T18:29:14;18.80;99.90
8105;DHT22;4095;48.942;9.104;2022-09-09T18:31:40;18.80;99.90
8105;DHT22;4095;48.942;9.104;2022-09-09T18:34:09;18.70;99.90
8105;DHT22;4095;48.942;9.104;2022-09-09T18:36:46;18.80;99.90
8105;DHT22;4095;48.942;9.104;2022-09-09T18:39:15;18.80;99.90
8105;DHT22;4095;48.942;9.104;2022-09-09T18:41:43;18.90;99.90
8105;DHT22;4095;48.942;9.104;2022-09-09T18:44:12;18.80;99.90
8105;DHT22;4095;48.942;9.104;2022-09-09T18:46:40;18.80;99.90